Time;durP1;ratioP1;P1;durP2;ratioP2;P2;SDS_P1;SDS_P2;PMS_P1;PMS_P2;Temp;Humidity;BMP_temperature;BMP_pressure;BME280_temperature;BME280_humidity;BME280_pressure;Samples;Min_cycle;Max_cycle;Signal;HPM_P1;HPM_P2
2022/08/05 00:02:13;;;;;;;11.85;3.47;;;;;;;21.36;100.00;98978.06;4397101;32;20043;-72
2022/08/05 00:04:39;;;;;;;6.78;3.35;;;;;;;21.27;100.00;98944.38;4399680;32;20042;-71
2022/08/05 00:07:06;;;;;;;3.53;3.22;;;;;;;21.21;100.00;98937.44;4397958;32;20417;-72
2022/08/05 00:09:32;;;;;;;4.55;3.30;;;;;;;21.24;100.00;98969.66;4399276;32;20523;-71
2022/08/05 00:11:58;;;;;;;5.97;3.22;;;;;;;21.29;100.00;98961.28;4399369;32;20407;-71
2022/08/05 00:14:25;;;;;;;11.77;3.45;;;;;;;21.26;100.00;98956.44;4396364;32;20417;-72
2022/08/05 00:16:51;;;;;;;3.70;3.22;;;;;;;21.24;100.00;98964.19;4399227;32;20055;-71
2022/08/05 00:19:17;;;;;;;11.30;3.90;;;;;;;21.11;100.00;98959.66;4397718;32;20056;-71
2022/08/05 00:21:43;;;;;;;4.37;3.65;;;;;;;21.24;100.00;98966.94;4439036;32;20018;-71
2022/08/05 00:24:10;;;;;;;6.70;3.33;;;;;;;21.20;100.00;98958.56;4462944;32;20201;-71
2022/08/05 00:26:37;;;;;;;3.60;3.30;;;;;;;21.05;100.00;98932.47;4460860;32;20071;-71
2022/08/05 00:29:03;;;;;;;3.45;2.95;;;;;;;21.20;100.00;98953.09;4455235;32;20038;-71
2022/08/05 00:31:30;;;;;;;5.87;3.50;;;;;;;21.32;100.00;98949.69;4447288;32;20067;-72
2022/08/05 00:33:56;;;;;;;5.80;3.75;;;;;;;21.29;100.00;98953.06;4448477;32;20391;-72
2022/08/05 00:36:23;;;;;;;4.82;3.22;;;;;;;21.13;100.00;98927.31;4401371;32;20409;-72
2022/08/05 00:38:50;;;;;;;6.20;3.50;;;;;;;21.26;100.00;98958.41;4401172;32;20080;-71
2022/08/05 00:41:32;;;;;;;4.20;3.00;;;;;;;21.20;100.00;98958.56;4402194;32;20039;-72
2022/08/05 00:43:59;;;;;;;5.55;3.42;;;;;;;20.91;100.00;98912.66;4402102;32;20038;-71
2022/08/05 00:46:26;;;;;;;3.75;3.28;;;;;;;21.15;100.00;98955.16;4400315;32;20041;-71
2022/08/05 00:48:52;;;;;;;9.18;3.95;;;;;;;20.91;100.00;98911.84;4401511;32;20529;-71
2022/08/05 00:51:20;;;;;;;4.05;3.20;;;;;;;21.09;100.00;98950.97;4416767;32;20462;-71
2022/08/05 00:53:47;;;;;;;5.43;3.17;;;;;;;20.66;100.00;98904.09;4417180;32;20367;-72
2022/08/05 00:56:15;;;;;;;8.50;3.60;;;;;;;20.78;100.00;98906.19;4384662;32;20031;-72
2022/08/05 00:58:42;;;;;;;5.70;3.33;;;;;;;21.12;100.00;98950.34;4386876;32;20098;-71
2022/08/05 01:01:09;;;;;;;7.72;3.30;;;;;;;21.07;100.00;98947.75;4398958;32;20057;-72
2022/08/05 01:03:37;;;;;;;5.97;3.22;;;;;;;21.07;100.00;98937.59;4399327;32;20116;-72
2022/08/05 01:06:03;;;;;;;4.12;3.35;;;;;;;20.94;100.00;98928.44;4399697;32;20096;-71
2022/08/05 01:08:30;;;;;;;4.57;3.30;;;;;;;20.95;100.00;98935.53;4416223;32;20184;-71
2022/08/05 01:11:05;;;;;;;3.33;3.03;;;;;;;21.03;100.00;98936.66;4416864;32;20027;-71
2022/08/05 01:13:54;;;;;;;7.10;3.35;;;;;;;20.98;100.00;98926.66;4415629;32;20379;-71
2022/08/05 01:16:28;;;;;;;8.85;3.28;;;;;;;20.93;100.00;98940.50;4416943;32;20048;-71
2022/08/05 01:19:00;;;;;;;4.80;2.65;;;;;;;20.79;100.00;98905.09;4416013;32;20416;-71
2022/08/05 01:21:48;;;;;;;8.38;2.83;;;;;;;20.85;100.00;98931.16;4415691;32;20399;-71
2022/08/05 01:25:00;;;;;;;3.80;3.10;;;;;;;20.53;100.00;98899.53;4416403;32;20152;-71
2022/08/05 01:28:04;;;;;;;6.75;3.08;;;;;;;20.84;100.00;98945.16;4437313;32;20434;-71
2022/08/05 01:30:36;;;;;;;4.25;2.85;;;;;;;20.89;100.00;98925.84;4449395;32;20055;-70
2022/08/05 01:33:08;;;;;;;4.03;3.53;;;;;;;20.92;100.00;98922.47;4448974;32;20415;-71
2022/08/05 01:35:40;;;;;;;9.73;3.35;;;;;;;20.57;100.00;98892.31;4448563;32;20395;-71
2022/08/05 01:38:14;;;;;;;8.75;3.15;;;;;;;20.53;100.00;98885.84;4448982;32;20079;-72
2022/08/05 01:40:41;;;;;;;6.87;2.97;;;;;;;20.89;100.00;98917.66;4448748;32;20034;-71
2022/08/05 01:43:10;;;;;;;3.47;3.17;;;;;;;20.76;100.00;98918.56;4448525;32;20068;-71
2022/08/05 01:45:37;;;;;;;10.02;2.92;;;;;;;20.84;100.00;98907.66;4447554;32;20034;-72
2022/08/05 01:48:07;;;;;;;8.68;3.20;;;;;;;20.87;100.00;98911.69;4438558;32;20484;-72
2022/08/05 01:50:39;;;;;;;6.85;3.20;;;;;;;20.75;100.00;98870.47;4464694;32;20033;-72
2022/08/05 01:53:13;;;;;;;3.40;3.00;;;;;;;20.57;100.00;98845.03;4463022;32;20037;-72
2022/08/05 01:55:42;;;;;;;4.35;2.90;;;;;;;20.70;100.00;98862.44;4462776;32;20041;-73
2022/08/05 01:58:12;;;;;;;10.18;3.17;;;;;;;20.80;100.00;98889.47;4458736;32;20763;-73
2022/08/05 02:00:43;;;;;;;3.85;3.15;;;;;;;20.51;100.00;98855.31;4449063;32;20037;-72
2022/08/05 02:03:38;;;;;;;3.53;2.92;;;;;;;20.61;100.00;98860.44;4448703;32;20038;-73
2022/08/05 02:06:06;;;;;;;6.97;3.22;;;;;;;20.85;100.00;98897.50;4448996;32;20041;-73
2022/08/05 02:08:33;;;;;;;5.87;3.10;;;;;;;20.78;100.00;98886.25;4448939;32;20099;-73
2022/08/05 02:11:09;;;;;;;13.45;2.95;;;;;;;20.61;100.00;98868.66;4416263;32;20023;-73
2022/08/05 02:13:54;;;;;;;4.82;3.15;;;;;;;20.78;100.00;98897.19;4416223;32;20490;-73
2022/08/05 02:16:33;;;;;;;3.85;2.90;;;;;;;20.75;100.00;98870.47;4415828;32;20195;-73
2022/08/05 02:19:17;;;;;;;8.43;3.20;;;;;;;20.91;100.00;98890.75;4415306;32;20084;-72
2022/08/05 02:21:51;;;;;;;4.20;2.95;;;;;;;20.81;100.00;98882.88;4415990;32;20070;-72
2022/08/05 02:24:21;;;;;;;4.80;3.37;;;;;;;20.53;100.00;98825.69;4412279;32;20460;-73
2022/08/05 02:26:51;;;;;;;4.22;3.25;;;;;;;20.82;100.00;98874.34;4416037;32;20169;-73
2022/08/05 02:29:20;;;;;;;2.92;2.72;;;;;;;20.93;100.00;98877.53;4417851;32;20054;-73
2022/08/05 02:31:49;;;;;;;6.50;2.92;;;;;;;20.86;100.00;98871.78;4431208;32;20037;-70
2022/08/05 02:34:18;;;;;;;12.55;3.42;;;;;;;20.64;100.00;98843.41;4428504;32;20034;-71
2022/08/05 02:36:50;;;;;;;17.77;4.10;;;;;;;20.85;100.00;98870.97;4431156;32;20076;-72
2022/08/05 02:39:20;;;;;;;4.07;3.40;;;;;;;20.62;100.00;98834.72;4430865;32;20030;-71
2022/08/05 02:41:47;;;;;;;8.18;3.17;;;;;;;20.22;100.00;98793.81;4443279;32;20025;-72
2022/08/05 02:44:14;;;;;;;11.68;3.67;;;;;;;20.57;100.00;98832.12;4461923;32;20077;-71
2022/08/05 02:46:44;;;;;;;4.68;3.35;;;;;;;20.79;100.00;98871.44;4463959;32;20038;-71
2022/08/05 02:49:18;;;;;;;14.87;3.95;;;;;;;20.57;100.00;98832.12;4463602;32;20051;-72
2022/08/05 02:51:45;;;;;;;14.00;3.05;;;;;;;20.45;100.00;98838.22;4461804;32;20059;-71
2022/08/05 02:54:13;;;;;;;4.45;3.55;;;;;;;20.40;100.00;98856.72;4463463;32;20059;-72
2022/08/05 02:56:43;;;;;;;3.33;3.03;;;;;;;20.70;100.00;98854.22;4430611;32;20095;-71
2022/08/05 02:59:11;;;;;;;5.72;3.35;;;;;;;20.51;100.00;98827.94;4430835;32;20026;-71
2022/08/05 03:01:40;;;;;;;12.80;3.67;;;;;;;20.71;100.00;98855.81;4430551;32;20029;-71
2022/08/05 03:04:09;;;;;;;9.75;3.42;;;;;;;20.90;100.00;98861.81;4415264;32;20046;-72
2022/08/05 03:06:37;;;;;;;5.47;2.83;;;;;;;20.80;100.00;98841.00;4415092;32;20029;-72
2022/08/05 03:09:04;;;;;;;2.97;2.80;;;;;;;20.63;100.00;98847.28;4414922;32;20108;-71
2022/08/05 03:11:30;;;;;;;4.28;3.58;;;;;;;20.76;100.00;98855.66;4415196;32;20376;-72
2022/08/05 03:13:56;;;;;;;9.10;2.70;;;;;;;20.80;100.00;98851.16;4413143;32;20037;-72
2022/08/05 03:16:23;;;;;;;3.12;2.90;;;;;;;20.78;100.00;98854.22;4400025;32;20480;-72
2022/08/05 03:18:50;;;;;;;5.03;3.10;;;;;;;20.80;100.00;98853.91;4402680;32;20038;-72
2022/08/05 03:21:16;;;;;;;5.57;3.20;;;;;;;20.50;100.00;98815.38;4415326;32;20321;-72
2022/08/05 03:23:43;;;;;;;3.78;3.12;;;;;;;20.80;100.00;98843.75;4415192;32;20042;-72
2022/08/05 03:26:10;;;;;;;10.65;3.50;;;;;;;21.08;100.00;98845.34;4412890;32;20041;-72
2022/08/05 03:28:37;;;;;;;9.43;3.53;;;;;;;20.99;100.00;98848.91;4428299;32;20058;-72
2022/08/05 03:31:04;;;;;;;3.60;3.00;;;;;;;20.93;100.00;98855.66;4430400;32;20103;-73
2022/08/05 03:33:30;;;;;;;5.93;2.95;;;;;;;20.72;100.00;98819.16;4429999;32;20412;-72
2022/08/05 03:35:57;;;;;;;6.57;3.10;;;;;;;20.92;100.00;98848.59;4427980;32;20051;-72
2022/08/05 03:38:25;;;;;;;3.62;3.33;;;;;;;20.76;100.00;98822.81;4430141;32;20429;-72
2022/08/05 03:40:54;;;;;;;14.10;3.53;;;;;;;20.90;100.00;98850.03;4430214;32;20030;-72
2022/08/05 03:43:24;;;;;;;7.22;2.95;;;;;;;20.63;100.00;98816.38;4430074;32;20030;-71
2022/08/05 03:45:53;;;;;;;8.65;3.42;;;;;;;20.85;100.00;98853.72;4428863;32;20038;-71
2022/08/05 03:48:22;;;;;;;3.78;3.45;;;;;;;20.89;100.00;98848.44;4398477;32;20055;-71
2022/08/05 03:50:54;;;;;;;4.72;3.72;;;;;;;20.96;100.00;98855.00;4398809;32;20364;-71
2022/08/05 03:53:29;;;;;;;19.85;3.72;;;;;;;20.85;100.00;98837.31;4399324;32;20042;-72
2022/08/05 03:56:11;;;;;;;6.60;3.37;;;;;;;20.93;100.00;98855.66;4404330;32;20045;-71
2022/08/05 03:58:41;;;;;;;;;;;;;;;20.86;100.00;98822.50;4415272;32;20039;-71
2022/08/05 04:01:09;;;;;;;15.02;3.17;;;;;;;20.99;100.00;98859.84;4407105;32;19934;-71
2022/08/05 04:03:38;;;;;;;13.73;3.08;;;;;;;21.00;100.00;98841.50;4403564;32;20152;-72
2022/08/05 04:06:05;;;;;;;5.65;3.25;;;;;;;20.72;100.00;98813.66;4406059;32;20064;-72
2022/08/05 04:08:35;;;;;;;11.05;4.00;;;;;;;21.10;100.00;98843.09;4404852;32;20447;-72
2022/08/05 04:11:03;;;;;;;4.43;3.17;;;;;;;20.66;100.00;98813.84;4390728;32;20051;-72
2022/08/05 04:13:30;;;;;;;13.25;3.30;;;;;;;21.10;100.00;98845.84;4394833;32;20058;-72
2022/08/05 04:15:56;;;;;;;6.72;3.53;;;;;;;21.11;100.00;98850.16;4379561;32;20031;-73
2022/08/05 04:18:24;;;;;;;4.28;3.35;;;;;;;21.00;100.00;98845.03;4380542;32;20098;-73
2022/08/05 04:20:54;;;;;;;3.65;3.35;;;;;;;21.02;100.00;98848.25;4398178;32;20441;-73
2022/08/05 04:23:23;;;;;;;6.07;2.95;;;;;;;20.91;100.00;98835.22;4387637;32;21024;-72
2022/08/05 04:25:57;;;;;;;4.90;3.28;;;;;;;20.61;100.00;98767.44;4399304;32;20056;-73
2022/08/05 04:28:23;;;;;;;5.72;3.55;;;;;;;21.21;100.00;98847.09;4400992;32;20070;-73
2022/08/05 04:30:49;;;;;;;9.57;3.35;;;;;;;21.38;100.00;98843.50;4399514;32;20035;-74
2022/08/05 04:33:16;;;;;;;4.53;3.22;;;;;;;21.07;100.00;98799.94;4400024;32;20035;-73
2022/08/05 04:35:43;;;;;;;6.20;3.10;;;;;;;21.35;100.00;98825.81;4399962;32;20072;-72
2022/08/05 04:38:10;;;;;;;4.57;3.20;;;;;;;21.27;100.00;98832.12;4393545;32;20023;-72
2022/08/05 04:40:37;;;;;;;6.12;3.25;;;;;;;21.12;100.00;98795.09;4391386;32;20048;-72
2022/08/05 04:43:04;;;;;;;7.47;3.15;;;;;;;21.22;100.00;98838.56;4413773;32;20060;-75
2022/08/05 04:45:32;;;;;;;7.12;2.92;;;;;;;20.90;100.00;98767.94;4383003;32;20043;-72
2022/08/05 04:48:10;;;;;;;7.05;3.28;;;;;;;21.40;100.00;98836.59;4384157;32;20046;-72
2022/08/05 04:50:45;;;;;;;11.63;3.70;;;;;;;21.64;100.00;98839.94;4385793;32;20510;-72
2022/08/05 04:53:13;;;;;;;6.00;2.50;;;;;;;21.76;100.00;98854.56;4395612;32;20038;-72
2022/08/05 04:55:40;;;;;;;4.05;2.87;;;;;;;21.85;100.00;98850.97;4415102;32;20093;-71
2022/08/05 04:58:08;;;;;;;8.15;3.50;;;;;;;21.75;100.00;98820.06;4375259;32;20031;-72
2022/08/05 05:00:36;;;;;;;5.68;3.40;;;;;;;21.77;100.00;98834.22;4348383;32;20047;-73
2022/08/05 05:03:04;;;;;;;17.20;3.17;;;;;;;22.32;100.00;98845.41;4351167;32;20400;-73
2022/08/05 05:05:31;;;;;;;4.68;3.25;;;;;;;22.52;100.00;98846.59;4354649;32;20056;-70
2022/08/05 05:08:05;;;;;;;9.75;3.30;;;;;;;22.42;100.00;98847.78;4354986;32;20524;-71
2022/08/05 05:10:43;;;;;;;7.15;2.78;;;;;;;22.27;100.00;98834.63;4354482;32;20389;-73
2022/08/05 05:13:19;;;;;;;4.57;3.05;;;;;;;21.98;100.00;98797.84;4371108;32;20039;-71
2022/08/05 05:15:45;;;;;;;12.65;3.58;;;;;;;22.40;100.00;98850.06;4342597;33;20064;-71
2022/08/05 05:18:14;;;;;;;11.15;4.25;;;;;;;22.56;100.00;98819.28;4353712;32;20035;-71
2022/08/05 05:20:44;;;;;;;4.62;3.10;;;;;;;22.69;100.00;98862.12;4355242;32;20049;-71
2022/08/05 05:23:12;;;;;;;12.30;3.47;;;;;;;22.47;100.00;98792.72;4356260;32;20324;-71
2022/08/05 05:25:42;;;;;;;4.53;2.87;;;;;;;22.83;100.00;98843.44;4356191;32;20057;-71
2022/08/05 05:28:10;;;;;;;15.52;3.30;;;;;;;22.88;100.00;98841.63;4355242;32;20343;-71
2022/08/05 05:30:38;;;;;;;9.35;2.80;;;;;;;22.79;100.00;98848.00;4370617;32;20031;-72
2022/08/05 05:33:06;;;;;;;7.53;2.47;;;;;;;22.83;100.00;98854.44;4385448;32;20028;-71
2022/08/05 05:35:33;;;;;;;15.13;3.00;;;;;;;22.92;100.00;98842.56;4368733;32;20061;-72
2022/08/05 05:38:05;;;;;;;6.80;2.83;;;;;;;23.10;100.00;98857.75;4370138;32;20065;-71
2022/08/05 05:40:32;;;;;;;9.15;3.67;;;;;;;23.15;100.00;98854.00;4369804;32;20065;-72
2022/08/05 05:42:58;;;;;;;8.95;2.42;;;;;;;23.16;100.00;98858.37;4371137;32;20343;-70
2022/08/05 05:45:25;;;;;;;4.62;2.97;;;;;;;23.16;100.00;98820.72;4371446;32;20035;-72
2022/08/05 05:47:52;;;;;;;4.65;2.50;;;;;;;23.14;100.00;98823.00;4396140;32;20038;-74
2022/08/05 05:50:19;;;;;;;13.35;2.70;;;;;;;23.34;100.00;98846.06;4404927;32;20052;-71
2022/08/05 05:52:46;;;;;;;4.43;2.47;;;;;;;22.95;100.00;98748.56;4414153;32;20064;-71
2022/08/05 05:55:14;;;;;;;6.50;2.33;;;;;;;23.47;100.00;98863.38;4415074;32;20046;-71
2022/08/05 05:57:45;;;;;;;6.37;3.10;;;;;;;23.44;100.00;98852.25;4416596;32;20026;-71
2022/08/05 06:00:17;;;;;;;2.47;2.30;;;;;;;23.40;100.00;98775.22;4414125;32;20038;-73
2022/08/05 06:02:46;;;;;;;11.25;3.28;;;;;;;23.76;100.00;98843.16;4399657;32;20074;-71
2022/08/05 06:05:14;;;;;;;7.85;3.03;;;;;;;23.73;100.00;98854.03;4369138;32;20035;-72
2022/08/05 06:07:46;;;;;;;5.18;2.97;;;;;;;23.57;100.00;98786.00;4396043;32;20031;-73
2022/08/05 06:10:13;;;;;;;12.77;2.97;;;;;;;24.01;100.00;98865.19;4399145;32;21455;-72
2022/08/05 06:12:40;;;;;;;2.70;2.45;;;;;;;23.86;100.00;98830.13;4399318;32;20027;-72
2022/08/05 06:15:07;;;;;;;6.93;3.25;;;;;;;23.80;100.00;98815.78;4400525;32;20050;-73
2022/08/05 06:17:35;;;;;;;5.00;2.87;;;;;;;24.24;100.00;98856.50;4367738;32;20095;-75
2022/08/05 06:20:03;;;;;;;15.00;3.05;;;;;;;24.15;100.00;98853.84;4366796;32;20384;-74
2022/08/05 06:22:32;;;;;;;3.25;2.70;;;;;;;23.88;100.00;98823.12;4369385;32;20245;-73
2022/08/05 06:25:07;;;;;;;5.32;2.62;;;;;;;24.28;100.00;98863.72;4355376;32;20040;-70
2022/08/05 06:27:34;;;;;;;4.97;2.55;;;;;;;23.98;100.00;98840.31;4354005;32;20036;-74
2022/08/05 06:30:02;;;;;;;4.57;2.40;;;;;;;23.85;100.00;98823.03;4353753;32;20100;-71
2022/08/05 06:32:29;;;;;;;2.72;2.50;;;;;;;24.39;100.00;98849.47;4354427;32;20057;-71
2022/08/05 06:34:57;;;;;;;10.35;2.85;;;;;;;24.30;100.00;98817.38;4366038;32;20083;-72
2022/08/05 06:37:25;;;;;;;4.30;2.95;;;;;;;24.38;100.00;98790.06;4395126;32;20035;-72
2022/08/05 06:42:24;;;;;;;15.40;3.55;;;;;;;24.58;100.00;98846.94;4400263;32;20072;-72
2022/08/05 06:44:51;;;;;;;8.85;3.58;;;;;;;24.29;100.00;98813.03;4384475;32;20027;-73
2022/08/05 06:47:17;;;;;;;7.87;2.83;;;;;;;24.83;100.00;98839.41;4368005;32;20068;-73
2022/08/05 06:49:43;;;;;;;4.43;3.08;;;;;;;24.99;100.00;98853.22;4352442;32;20047;-75
2022/08/05 06:52:10;;;;;;;16.23;3.22;;;;;;;24.97;100.00;98839.03;4308510;33;20070;-72
2022/08/05 06:54:37;;;;;;;4.65;3.28;;;;;;;24.79;100.00;98799.16;4309403;33;20048;-72
2022/08/05 06:57:03;;;;;;;7.72;3.20;;;;;;;25.04;100.00;98840.38;4337397;33;20195;-72
2022/08/05 06:59:30;;;;;;;6.75;3.12;;;;;;;24.81;100.00;98835.37;4340177;33;20061;-73
2022/08/05 07:01:56;;;;;;;10.65;3.28;;;;;;;24.56;100.00;98807.97;4338999;33;20066;-74
2022/08/05 07:04:22;;;;;;;3.65;2.50;;;;;;;24.99;100.00;98842.22;4323857;33;20416;-73
2022/08/05 07:06:49;;;;;;;4.18;2.95;;;;;;;25.06;100.00;98825.09;4325229;33;20364;-73
2022/08/05 07:09:15;;;;;;;10.13;3.20;;;;;;;25.42;100.00;98828.84;4324149;33;20043;-72
2022/08/05 07:11:41;;;;;;;6.28;3.65;;;;;;;25.43;100.00;98832.38;4322217;33;20053;-72
2022/08/05 07:16:58;;;;;;;6.57;3.17;;;;;;;25.35;100.00;98826.69;4344238;32;20113;-71
2022/08/05 07:19:24;;;;;;;8.73;3.08;;;;;;;25.71;100.00;98821.28;4371035;32;20413;-71
2022/08/05 07:21:51;;;;;;;3.87;3.25;;;;;;;25.72;100.00;98840.22;4395889;32;20062;-73
2022/08/05 07:24:17;;;;;;;10.32;3.53;;;;;;;25.51;100.00;98806.59;4451330;32;20025;-71
2022/08/05 07:26:44;;;;;;;7.45;3.22;;;;;;;25.41;100.00;98798.88;4461121;32;20072;-71
2022/08/05 07:29:11;;;;;;;12.60;3.60;;;;;;;25.62;100.00;98835.22;4437828;32;20038;-71
2022/08/05 07:31:38;;;;;;;4.65;3.08;;;;;;;25.68;100.00;98833.81;4436034;32;20033;-71
2022/08/05 07:34:05;;;;;;;13.00;3.40;;;;;;;25.24;100.00;98776.00;4434343;32;20065;-71
2022/08/05 07:36:32;;;;;;;6.15;2.92;;;;;;;25.38;100.00;98798.44;4436443;32;20443;-71
2022/08/05 07:39:00;;;;;;;9.10;2.95;;;;;;;25.66;100.00;98797.53;4438994;32;20095;-72
2022/08/05 07:41:27;;;;;;;12.73;4.07;;;;;;;25.65;100.00;98801.44;4440509;32;20081;-71
2022/08/05 07:43:55;;;;;;;5.85;2.92;;;;;;;25.98;100.00;98838.91;4430197;32;20030;-72
2022/08/05 07:46:22;;;;;;;8.27;3.12;;;;;;;25.86;100.00;98827.94;4428950;32;20038;-71
2022/08/05 07:48:48;;;;;;;3.47;2.75;;;;;;;25.53;100.00;98798.81;4430437;32;20074;-72
2022/08/05 07:51:14;;;;;;;10.23;3.17;;;;;;;25.68;100.00;98795.22;4430094;32;20073;-72
2022/08/05 07:53:42;;;;;;;3.37;2.65;;;;;;;25.82;100.00;98832.59;4428723;32;20438;-72
2022/08/05 07:56:08;;;;;;;5.75;3.00;;;;;;;25.73;100.00;98808.72;4430004;32;20031;-75
2022/08/05 07:58:34;;;;;;;3.80;3.45;;;;;;;25.74;100.00;98799.31;4413739;32;20446;-72
2022/08/05 08:01:01;;;;;;;7.28;2.67;;;;;;;25.48;100.00;98779.75;4415637;32;20067;-72
2022/08/05 08:03:27;;;;;;;4.90;3.17;;;;;;;26.31;100.00;98801.84;4418689;32;20034;-71
2022/08/05 08:05:53;;;;;;;3.33;2.85;;;;;;;25.97;100.00;98826.28;4430091;32;20044;-70
2022/08/05 08:08:20;;;;;;;12.13;2.83;;;;;;;25.95;100.00;98787.19;4407254;32;20039;-73
2022/08/05 08:10:46;;;;;;;5.20;2.60;;;;;;;25.85;100.00;98765.69;4415207;32;20064;-71
2022/08/05 08:13:12;;;;;;;7.95;2.95;;;;;;;26.46;100.00;98816.75;4415453;32;20026;-71
2022/08/05 08:15:39;;;;;;;10.23;2.92;;;;;;;26.50;100.00;98822.31;4415587;32;20072;-71
2022/08/05 08:18:05;;;;;;;10.57;3.35;;;;;;;26.60;100.00;98792.19;4415242;32;20035;-73
2022/08/05 08:20:31;;;;;;;15.15;2.95;;;;;;;26.48;100.00;98794.28;4364144;32;20027;-71
2022/08/05 08:22:59;;;;;;;11.35;3.08;;;;;;;26.76;100.00;98786.63;4365298;32;20047;-71
2022/08/05 08:25:29;;;;;;;7.78;3.08;;;;;;;26.76;100.00;98814.25;4368401;32;20055;-72
2022/08/05 08:27:57;;;;;;;8.00;3.15;;;;;;;26.72;100.00;98818.09;4366910;32;20062;-72
2022/08/05 08:30:24;;;;;;;10.80;2.90;;;;;;;26.63;100.00;98821.06;4378924;32;20409;-72
2022/08/05 08:32:50;;;;;;;4.37;2.65;;;;;;;26.74;100.00;98816.56;4385137;32;20043;-71
2022/08/05 08:35:16;;;;;;;3.65;2.62;;;;;;;26.72;100.00;98802.31;4368998;32;20487;-71
2022/08/05 08:37:43;;;;;;;9.23;2.90;;;;;;;27.27;100.00;98821.53;4369726;32;20043;-71
2022/08/05 08:40:10;;;;;;;10.43;2.80;;;;;;;27.16;99.80;98790.94;4369871;32;20060;-71
2022/08/05 08:42:38;;;;;;;4.93;2.70;;;;;;;27.33;97.43;98820.09;4368024;32;20027;-72
2022/08/05 08:45:06;;;;;;;3.78;2.47;;;;;;;26.94;96.88;98788.94;4369781;32;20055;-71
2022/08/05 08:47:34;;;;;;;2.70;2.50;;;;;;;27.10;93.84;98797.13;4370112;32;20035;-71
2022/08/05 08:50:02;;;;;;;2.83;2.20;;;;;;;26.86;91.20;98751.31;4370151;32;20404;-71
2022/08/05 08:52:32;;;;;;;5.62;2.80;;;;;;;27.81;90.12;98833.56;4407136;32;20046;-75
2022/08/05 08:54:59;;;;;;;5.40;2.12;;;;;;;27.59;90.21;98826.03;4416251;32;20403;-70
2022/08/05 08:57:26;;;;;;;5.45;2.80;;;;;;;27.66;80.98;98815.12;4417869;32;20050;-71
2022/08/05 08:59:52;;;;;;;5.80;3.15;;;;;;;27.67;85.13;98834.09;4417844;32;20037;-72
2022/08/05 09:02:20;;;;;;;4.47;3.00;;;;;;;27.59;85.05;98820.50;4416175;32;20030;-72
2022/08/05 09:04:46;;;;;;;5.05;2.83;;;;;;;27.79;86.09;98835.09;4416637;32;20034;-74
2022/08/05 09:07:13;;;;;;;2.75;2.55;;;;;;;27.82;83.72;98829.59;4430544;32;20046;-72
2022/08/05 09:09:40;;;;;;;9.55;2.75;;;;;;;27.66;86.37;98826.19;4433484;32;20461;-72
2022/08/05 09:12:09;;;;;;;12.07;2.78;;;;;;;27.60;78.25;98817.38;4433276;32;20034;-72
2022/08/05 09:14:36;;;;;;;4.97;2.62;;;;;;;27.97;82.26;98818.78;4431893;32;20046;-74
2022/08/05 09:17:08;;;;;;;2.55;2.35;;;;;;;27.82;76.80;98804.72;4432731;32;20046;-72
2022/08/05 09:19:35;;;;;;;4.40;2.40;;;;;;;27.99;72.04;98817.25;4462384;32;20218;-72
2022/08/05 09:22:02;;;;;;;3.78;2.20;;;;;;;27.57;76.61;98812.59;4466316;32;20454;-71
2022/08/05 09:24:29;;;;;;;2.70;2.40;;;;;;;27.73;72.47;98815.22;4462496;32;20063;-72
2022/08/05 09:26:57;;;;;;;11.32;2.50;;;;;;;28.04;69.86;98813.38;4466389;32;20067;-72
2022/08/05 09:29:48;;;;;;;7.87;2.40;;;;;;;28.12;73.31;98781.87;4466418;32;20037;-72
2022/08/05 09:32:18;;;;;;;2.78;2.58;;;;;;;28.48;72.58;98810.06;4464408;32;20406;-74
2022/08/05 09:34:53;;;;;;;2.42;2.25;;;;;;;28.07;72.87;98779.44;4465979;32;20081;-71
2022/08/05 09:37:22;;;;;;;9.95;2.28;;;;;;;28.11;74.72;98807.94;4466194;32;20378;-72
2022/08/05 09:39:48;;;;;;;8.98;2.33;;;;;;;28.15;68.30;98775.59;4464830;32;20083;-75
2022/08/05 09:42:20;;;;;;;4.85;2.37;;;;;;;27.93;62.14;98752.31;4464939;32;20067;-72
2022/08/05 09:44:49;;;;;;;7.40;2.42;;;;;;;28.26;65.57;98804.22;4465940;32;20068;-72
2022/08/05 09:47:20;;;;;;;3.28;2.75;;;;;;;28.26;71.23;98798.69;4465939;32;20053;-72
2022/08/05 09:49:55;;;;;;;7.53;2.30;;;;;;;28.23;70.17;98774.50;4464023;32;20371;-72
2022/08/05 09:52:30;;;;;;;6.18;2.58;;;;;;;28.33;71.75;98752.91;4464242;32;20059;-72
2022/08/05 09:55:05;;;;;;;7.50;2.28;;;;;;;28.51;67.18;98800.97;4465526;32;20037;-72
2022/08/05 09:57:38;;;;;;;11.40;2.45;;;;;;;28.60;64.25;98765.50;4463222;32;20074;-72
2022/08/05 10:00:11;;;;;;;6.18;2.30;;;;;;;29.08;68.75;98802.88;4465546;32;20418;-71
2022/08/05 10:02:41;;;;;;;3.90;2.58;;;;;;;28.74;57.09;98795.38;4448098;32;20060;-72
2022/08/05 10:05:17;;;;;;;6.10;1.98;;;;;;;29.09;59.70;98788.63;4446184;32;20102;-72
2022/08/05 10:07:46;;;;;;;11.30;2.60;;;;;;;29.17;60.38;98789.50;4447344;32;20047;-72
2022/08/05 10:10:14;;;;;;;2.58;2.05;;;;;;;28.89;61.64;98790.00;4447863;32;20023;-72
2022/08/05 10:12:54;;;;;;;2.97;2.50;;;;;;;28.45;59.32;98794.19;4445988;32;20402;-72
2022/08/05 10:15:23;;;;;;;6.95;2.40;;;;;;;28.75;55.29;98760.13;4401833;32;20034;-72
2022/08/05 10:18:14;;;;;;;7.28;2.50;;;;;;;29.06;54.61;98783.06;4401857;32;20064;-71
2022/08/05 10:20:45;;;;;;;6.95;2.30;;;;;;;29.61;57.97;98783.19;4401568;32;20203;-72
2022/08/05 10:23:32;;;;;;;3.72;2.65;;;;;;;29.40;57.51;98746.97;4401881;32;20039;-71
2022/08/05 10:26:01;;;;;;;4.75;2.30;;;;;;;29.19;64.55;98742.81;4400979;32;20039;-73
2022/08/05 10:28:29;;;;;;;3.25;2.28;;;;;;;29.40;62.14;98758.06;4401586;32;20131;-72
2022/08/05 10:30:56;;;;;;;4.28;2.37;;;;;;;29.42;64.79;98775.91;4401637;32;20458;-71
2022/08/05 10:33:25;;;;;;;4.05;2.50;;;;;;;29.07;57.19;98707.03;4406891;32;20031;-70
2022/08/05 10:35:54;;;;;;;13.25;3.08;;;;;;;29.13;60.90;98719.38;4416899;32;20038;-70
2022/08/05 10:38:23;;;;;;;14.15;3.00;;;;;;;30.01;59.36;98769.62;4414864;32;20022;-71
2022/08/05 10:40:52;;;;;;;2.78;2.42;;;;;;;29.71;64.73;98773.37;4416708;32;20060;-71
2022/08/05 10:43:21;;;;;;;4.90;2.47;;;;;;;29.96;65.51;98773.56;4416457;32;20034;-71
2022/08/05 10:45:58;;;;;;;7.05;2.40;;;;;;;29.91;59.94;98765.59;4423195;32;20060;-73
2022/08/05 10:48:39;;;;;;;5.82;2.75;;;;;;;30.18;60.19;98752.28;4449148;32;20057;-71
2022/08/05 10:51:12;;;;;;;7.57;2.58;;;;;;;30.08;63.02;98730.81;4414648;32;20034;-71
2022/08/05 10:53:54;;;;;;;3.35;2.50;;;;;;;30.21;63.11;98759.81;4415001;32;20046;-73
2022/08/05 10:56:22;;;;;;;;;;;;;;;30.41;64.85;98759.56;4416814;32;20030;-71
2022/08/05 10:59:03;;;;;;;6.90;2.65;;;;;;;30.12;58.77;98755.81;4416230;32;19945;-71
2022/08/05 11:01:38;;;;;;;3.08;2.37;;;;;;;30.38;60.86;98755.59;4413920;32;20409;-72
2022/08/05 11:04:13;;;;;;;4.05;2.30;;;;;;;30.34;57.53;98729.75;4415742;32;20075;-72
2022/08/05 11:07:03;;;;;;;10.85;2.70;;;;;;;30.58;51.91;98752.47;4416342;32;20460;-71
2022/08/05 11:09:41;;;;;;;5.90;2.62;;;;;;;30.85;53.30;98752.19;4415996;32;20030;-72
2022/08/05 11:12:22;;;;;;;10.73;3.30;;;;;;;30.88;52.00;98718.03;4416314;32;20052;-72
2022/08/05 11:15:15;;;;;;;4.40;2.70;;;;;;;31.22;48.65;98751.06;4416066;32;20072;-71
2022/08/05 11:17:43;;;;;;;3.90;2.85;;;;;;;30.87;45.84;98741.44;4410395;32;20056;-71
2022/08/05 11:20:36;;;;;;;8.48;3.12;;;;;;;31.33;41.92;98724.06;4413694;32;20038;-72
2022/08/05 11:23:40;;;;;;;2.62;2.42;;;;;;;30.85;45.16;98755.75;4443197;32;20068;-72
2022/08/05 11:26:08;;;;;;;2.97;2.75;;;;;;;31.43;43.50;98751.09;4415231;32;20060;-72
2022/08/05 11:28:34;;;;;;;3.95;2.58;;;;;;;31.32;46.44;98751.09;4415623;32;20035;-72
2022/08/05 11:31:00;;;;;;;2.72;2.22;;;;;;;30.86;42.53;98723.19;4413295;32;20346;-73
2022/08/05 11:33:46;;;;;;;12.65;3.20;;;;;;;31.64;42.42;98750.31;4413928;32;20039;-72
2022/08/05 11:36:18;;;;;;;8.30;2.72;;;;;;;31.33;41.93;98729.63;4415821;32;20471;-72
2022/08/05 11:38:46;;;;;;;3.55;2.45;;;;;;;31.29;43.53;98746.31;4414503;32;20103;-71
2022/08/05 11:41:14;;;;;;;7.87;2.60;;;;;;;31.95;43.47;98742.31;4413430;32;20041;-73
2022/08/05 11:43:51;;;;;;;3.85;2.90;;;;;;;30.73;46.13;98720.78;4414740;32;20050;-70
2022/08/05 11:46:28;;;;;;;20.23;3.22;;;;;;;31.78;47.74;98721.66;4415599;32;20079;-72